Time;durP1;ratioP1;P1;durP2;ratioP2;P2;SDS_P1;SDS_P2;PMS_P1;PMS_P2;Temp;Humidity;BMP_temperature;BMP_pressure;BME280_temperature;BME280_humidity;BME280_pressure;Samples;Min_cycle;Max_cycle;Signal;HPM_P1;HPM_P2
2023/04/19 00:01:00;;;;;;;6.82;5.75;;;;;;;;;;4824595;29;20062;-78
2023/04/19 00:03:29;;;;;;;8.20;6.22;;;;;;;;;;4829406;29;20053;-78
2023/04/19 00:06:07;;;;;;;6.35;5.75;;;;;;;;;;4829558;29;20050;-78
2023/04/19 00:08:34;;;;;;;6.72;5.82;;;;;;;;;;4830977;29;20058;-78
2023/04/19 00:11:01;;;;;;;7.68;6.25;;;;;;;;;;4828349;29;20060;-78
2023/04/19 00:13:29;;;;;;;6.97;6.40;;;;;;;;;;4827546;29;20396;-79
2023/04/19 00:15:56;;;;;;;9.07;7.47;;;;;;;;;;4826836;29;20046;-78
2023/04/19 00:18:24;;;;;;;9.07;7.53;;;;;;;;;;4828847;29;20078;-79
2023/04/19 00:20:51;;;;;;;8.40;7.40;;;;;;;;;;4829452;29;20128;-79
2023/04/19 00:23:18;;;;;;;7.88;7.18;;;;;;;;;;4834315;29;20475;-79
2023/04/19 00:25:48;;;;;;;8.85;7.10;;;;;;;;;;4831433;29;20136;-79
2023/04/19 00:28:17;;;;;;;8.68;7.38;;;;;;;;;;4827615;29;20054;-79
2023/04/19 00:30:45;;;;;;;9.82;7.00;;;;;;;;;;4826446;29;20087;-79
2023/04/19 00:33:12;;;;;;;9.25;7.40;;;;;;;;;;4829582;29;20054;-79
2023/04/19 00:35:43;;;;;;;8.80;7.18;;;;;;;;;;4831022;29;20056;-79
2023/04/19 00:38:12;;;;;;;10.07;8.48;;;;;;;;;;4829957;29;20085;-79
2023/04/19 00:40:40;;;;;;;10.93;8.48;;;;;;;;;;4833175;29;20050;-78
2023/04/19 00:43:08;;;;;;;9.85;8.70;;;;;;;;;;4833741;29;20046;-79
2023/04/19 00:45:36;;;;;;;11.05;8.95;;;;;;;;;;4829410;29;20099;-79
2023/04/19 00:48:03;;;;;;;10.70;9.57;;;;;;;;;;4822120;29;20057;-78
2023/04/19 00:50:31;;;;;;;13.02;9.88;;;;;;;;;;4824768;29;20102;-78
2023/04/19 00:52:58;;;;;;;13.90;10.18;;;;;;;;;;4822230;29;20409;-78
2023/04/19 00:55:26;;;;;;;15.82;10.82;;;;;;;;;;4828904;29;20050;-79
2023/04/19 00:57:54;;;;;;;13.57;10.70;;;;;;;;;;4829940;29;20558;-79
2023/04/19 01:00:22;;;;;;;13.18;10.25;;;;;;;;;;4828365;29;20040;-78
2023/04/19 01:02:51;;;;;;;13.00;9.70;;;;;;;;;;4829762;29;20056;-78
2023/04/19 01:05:18;;;;;;;15.15;9.38;;;;;;;;;;4832010;29;20133;-79
2023/04/19 01:07:46;;;;;;;10.90;9.52;;;;;;;;;;4833457;29;20054;-79
2023/04/19 01:10:14;;;;;;;10.55;8.90;;;;;;;;;;4832129;29;20061;-79
2023/04/19 01:12:42;;;;;;;9.93;8.73;;;;;;;;;;4829748;29;20140;-78
2023/04/19 01:15:10;;;;;;;8.98;7.88;;;;;;;;;;4824325;29;20276;-78
2023/04/19 01:17:38;;;;;;;10.05;8.13;;;;;;;;;;4822293;29;20048;-78
2023/04/19 01:20:06;;;;;;;8.70;7.80;;;;;;;;;;4830577;29;20497;-79
2023/04/19 01:22:36;;;;;;;10.35;8.07;;;;;;;;;;4827280;29;20557;-78
2023/04/19 01:25:05;;;;;;;10.93;8.98;;;;;;;;;;4825907;29;20080;-78
2023/04/19 01:27:32;;;;;;;8.98;8.07;;;;;;;;;;4829182;29;20046;-78
2023/04/19 01:30:00;;;;;;;8.90;8.00;;;;;;;;;;4827971;29;20154;-78
2023/04/19 01:32:30;;;;;;;10.55;8.32;;;;;;;;;;4830116;29;20336;-78
2023/04/19 01:35:24;;;;;;;10.43;8.50;;;;;;;;;;4818174;29;20137;-78
2023/04/19 01:37:54;;;;;;;11.93;9.32;;;;;;;;;;4827025;29;20414;-78
2023/04/19 01:40:23;;;;;;;9.20;8.25;;;;;;;;;;4843161;29;20190;-78
2023/04/19 01:42:51;;;;;;;9.10;8.15;;;;;;;;;;4830238;29;20060;-78
2023/04/19 01:45:19;;;;;;;12.05;8.73;;;;;;;;;;4808344;29;20049;-78
2023/04/19 01:47:50;;;;;;;11.18;9.10;;;;;;;;;;4827421;29;20078;-78
2023/04/19 01:50:18;;;;;;;10.32;8.88;;;;;;;;;;4824009;29;20083;-78
2023/04/19 01:52:47;;;;;;;11.88;9.02;;;;;;;;;;4827789;29;20133;-78
2023/04/19 01:55:14;;;;;;;11.00;9.25;;;;;;;;;;4823706;29;20054;-78
2023/04/19 01:57:42;;;;;;;12.82;9.70;;;;;;;;;;4831071;29;20058;-78
2023/04/19 02:00:10;;;;;;;11.02;9.25;;;;;;;;;;4828206;29;20130;-78
2023/04/19 02:02:41;;;;;;;10.77;8.98;;;;;;;;;;4829023;29;20060;-78
2023/04/19 02:05:10;;;;;;;13.95;9.35;;;;;;;;;;4830887;29;20056;-78
2023/04/19 02:07:37;;;;;;;11.30;9.25;;;;;;;;;;4826980;29;20057;-78
2023/04/19 02:10:05;;;;;;;10.88;9.30;;;;;;;;;;4893749;24;20080;-84
2023/04/19 02:12:34;;;;;;;12.43;9.80;;;;;;;;;;4851316;29;20069;-85
2023/04/19 02:15:02;;;;;;;13.70;10.95;;;;;;;;;;4857863;29;20053;-84
2023/04/19 02:17:31;;;;;;;13.27;8.95;;;;;;;;;;4858632;29;20050;-84
2023/04/19 02:19:59;;;;;;;14.60;9.82;;;;;;;;;;4852855;29;20046;-85
2023/04/19 02:22:28;;;;;;;13.75;10.30;;;;;;;;;;4832067;29;20413;-84
2023/04/19 02:24:55;;;;;;;12.65;9.73;;;;;;;;;;4839643;29;20070;-84
2023/04/19 02:27:29;;;;;;;10.02;8.70;;;;;;;;;;4839655;29;20470;-85
2023/04/19 02:29:56;;;;;;;12.00;8.55;;;;;;;;;;4836745;29;20050;-84
2023/04/19 02:32:23;;;;;;;10.63;8.38;;;;;;;;;;4835505;29;20134;-85
2023/04/19 02:34:51;;;;;;;9.68;8.05;;;;;;;;;;4873730;29;20094;-85
2023/04/19 02:37:21;;;;;;;13.50;9.60;;;;;;;;;;4857078;29;20162;-84
2023/04/19 02:39:49;;;;;;;11.82;9.98;;;;;;;;;;4849246;29;20074;-84
2023/04/19 02:42:16;;;;;;;12.43;10.07;;;;;;;;;;4827729;29;20088;-84
2023/04/19 02:44:43;;;;;;;14.02;9.98;;;;;;;;;;4839764;29;20046;-84
2023/04/19 02:47:12;;;;;;;14.43;10.80;;;;;;;;;;4836534;29;20145;-84
2023/04/19 02:49:40;;;;;;;17.92;12.23;;;;;;;;;;4838354;29;20054;-85
2023/04/19 02:52:08;;;;;;;15.20;10.15;;;;;;;;;;4831590;29;20061;-84
2023/04/19 02:54:38;;;;;;;13.88;9.80;;;;;;;;;;4839395;29;20408;-84
2023/04/19 02:57:07;;;;;;;16.00;10.68;;;;;;;;;;4836015;29;21177;-84
2023/04/19 02:59:35;;;;;;;19.25;10.05;;;;;;;;;;4838099;29;20057;-83
2023/04/19 03:02:04;;;;;;;17.45;10.68;;;;;;;;;;4837439;29;20129;-84
2023/04/19 03:04:31;;;;;;;17.60;11.45;;;;;;;;;;4838184;29;20046;-85
2023/04/19 03:06:59;;;;;;;14.57;10.05;;;;;;;;;;4834318;29;20046;-84
2023/04/19 03:09:26;;;;;;;11.95;9.95;;;;;;;;;;4838589;29;20360;-83
2023/04/19 03:11:54;;;;;;;15.18;10.90;;;;;;;;;;4837947;29;20041;-84
2023/04/19 03:14:21;;;;;;;15.65;10.90;;;;;;;;;;4838140;29;20523;-84
2023/04/19 03:16:50;;;;;;;15.40;11.50;;;;;;;;;;4838609;29;20046;-84
2023/04/19 03:19:17;;;;;;;26.83;17.77;;;;;;;;;;4832085;29;20160;-85
2023/04/19 03:21:49;;;;;;;17.73;11.57;;;;;;;;;;4833026;29;20438;-84
2023/04/19 03:24:19;;;;;;;14.80;10.93;;;;;;;;;;4835405;29;20049;-84
2023/04/19 03:26:52;;;;;;;13.10;10.15;;;;;;;;;;4837140;29;20427;-84
2023/04/19 03:29:24;;;;;;;15.68;11.02;;;;;;;;;;4838147;29;20102;-84
2023/04/19 03:32:10;;;;;;;18.17;11.07;;;;;;;;;;4834449;29;20054;-84
2023/04/19 03:34:37;;;;;;;14.25;10.50;;;;;;;;;;4839639;29;20096;-85
2023/04/19 03:37:08;;;;;;;16.48;11.85;;;;;;;;;;4838096;29;20684;-84
2023/04/19 03:39:35;;;;;;;13.93;10.65;;;;;;;;;;4836535;29;20513;-84
2023/04/19 03:42:06;;;;;;;15.85;10.90;;;;;;;;;;4835677;29;20087;-84
2023/04/19 03:44:43;;;;;;;17.30;10.57;;;;;;;;;;4834223;29;20119;-85
2023/04/19 03:47:11;;;;;;;14.30;9.68;;;;;;;;;;4830682;29;20054;-84
2023/04/19 03:49:43;;;;;;;14.68;10.40;;;;;;;;;;4832512;29;20159;-84
2023/04/19 03:52:12;;;;;;;11.25;8.85;;;;;;;;;;4851593;29;20761;-84
2023/04/19 03:54:39;;;;;;;15.05;10.43;;;;;;;;;;4838060;29;20787;-83
2023/04/19 03:57:15;;;;;;;19.48;11.68;;;;;;;;;;4834637;29;20090;-84
2023/04/19 03:59:42;;;;;;;13.40;10.00;;;;;;;;;;4853845;29;20061;-80
2023/04/19 04:02:29;;;;;;;11.80;10.00;;;;;;;;;;4861122;29;20022;-85
2023/04/19 04:04:59;;;;;;;11.02;9.10;;;;;;;;;;4855371;29;20049;-84
2023/04/19 04:07:27;;;;;;;14.98;10.80;;;;;;;;;;4836155;29;20057;-84
2023/04/19 04:10:03;;;;;;;14.45;10.45;;;;;;;;;;4836026;29;20645;-84
2023/04/19 04:12:41;;;;;;;14.40;11.65;;;;;;;;;;4836387;29;20154;-84
2023/04/19 04:15:14;;;;;;;14.30;12.18;;;;;;;;;;4851261;29;20057;-84
2023/04/19 04:17:46;;;;;;;15.32;11.27;;;;;;;;;;4834924;29;20521;-85
2023/04/19 04:20:15;;;;;;;13.25;10.88;;;;;;;;;;4836496;29;20046;-84
2023/04/19 04:22:45;;;;;;;13.73;11.07;;;;;;;;;;4838131;29;20042;-84
2023/04/19 04:25:18;;;;;;;14.38;11.50;;;;;;;;;;4834994;29;20141;-84
2023/04/19 04:27:51;;;;;;;16.02;11.23;;;;;;;;;;4830141;29;20046;-84
2023/04/19 04:30:20;;;;;;;13.88;10.90;;;;;;;;;;4850163;29;20527;-87
2023/04/19 04:32:50;;;;;;;16.88;11.25;;;;;;;;;;4826963;29;20053;-85
2023/04/19 04:35:17;;;;;;;16.02;12.27;;;;;;;;;;4830341;29;21091;-85
2023/04/19 04:37:55;;;;;;;15.68;12.15;;;;;;;;;;4827122;29;20076;-83
2023/04/19 04:40:23;;;;;;;13.52;10.93;;;;;;;;;;4834911;29;20080;-83
2023/04/19 04:42:51;;;;;;;11.77;10.10;;;;;;;;;;4834404;29;20322;-84
2023/04/19 04:45:20;;;;;;;11.32;10.13;;;;;;;;;;4832346;29;20513;-84
2023/04/19 04:47:50;;;;;;;15.38;11.65;;;;;;;;;;4830375;29;20050;-84
2023/04/19 04:50:17;;;;;;;11.88;9.90;;;;;;;;;;4831611;29;20152;-84
2023/04/19 04:52:48;;;;;;;13.10;10.52;;;;;;;;;;4847303;29;20133;-84
2023/04/19 04:55:24;;;;;;;15.20;11.02;;;;;;;;;;4831554;29;20054;-84
2023/04/19 04:57:52;;;;;;;13.32;10.15;;;;;;;;;;4832949;29;20055;-84
2023/04/19 05:00:27;;;;;;;14.10;11.70;;;;;;;;;;4829377;29;20065;-85
2023/04/19 05:03:01;;;;;;;17.00;11.90;;;;;;;;;;4831625;29;20064;-84
2023/04/19 05:05:35;;;;;;;15.38;12.57;;;;;;;;;;4830300;29;20449;-85
2023/04/19 05:08:03;;;;;;;17.23;14.00;;;;;;;;;;4829744;29;20141;-85
2023/04/19 05:10:31;;;;;;;17.38;13.32;;;;;;;;;;4833228;29;20123;-84
2023/04/19 05:13:00;;;;;;;17.52;12.57;;;;;;;;;;4831870;29;20050;-84
2023/04/19 05:15:29;;;;;;;15.98;13.13;;;;;;;;;;4828816;29;20145;-87
2023/04/19 05:17:57;;;;;;;16.55;12.77;;;;;;;;;;4832588;29;20659;-84
2023/04/19 05:20:27;;;;;;;16.90;12.70;;;;;;;;;;4833452;29;20062;-83
2023/04/19 05:23:03;;;;;;;13.55;11.48;;;;;;;;;;4845898;29;20049;-84
2023/04/19 05:25:33;;;;;;;14.15;11.38;;;;;;;;;;4845685;29;20145;-85
2023/04/19 05:28:02;;;;;;;14.60;11.23;;;;;;;;;;4841855;29;20154;-84
2023/04/19 05:30:36;;;;;;;15.35;11.40;;;;;;;;;;4856936;29;20054;-84
2023/04/19 05:33:07;;;;;;;15.15;11.45;;;;;;;;;;4836374;29;20053;-84
2023/04/19 05:35:35;;;;;;;19.20;14.38;;;;;;;;;;4835353;29;20046;-84
2023/04/19 05:38:27;;;;;;;16.92;11.82;;;;;;;;;;4835020;29;20045;-80
2023/04/19 05:41:04;;;;;;;15.60;10.80;;;;;;;;;;4828846;29;20046;-84
2023/04/19 05:43:32;;;;;;;14.23;10.82;;;;;;;;;;4835227;29;20050;-83
2023/04/19 05:46:00;;;;;;;12.13;10.63;;;;;;;;;;4852673;29;20073;-86
2023/04/19 05:48:29;;;;;;;13.65;10.70;;;;;;;;;;4835514;29;20050;-83
2023/04/19 05:51:17;;;;;;;12.52;10.73;;;;;;;;;;4840943;29;20136;-84
2023/04/19 05:53:55;;;;;;;13.60;10.48;;;;;;;;;;4846671;29;20276;-84
2023/04/19 05:56:24;;;;;;;15.18;11.40;;;;;;;;;;4845385;29;20057;-83
2023/04/19 05:58:54;;;;;;;13.73;11.50;;;;;;;;;;4831519;29;20468;-84
2023/04/19 06:01:22;;;;;;;12.63;10.52;;;;;;;;;;4837069;29;20042;-86
2023/04/19 06:03:55;;;;;;;13.35;10.85;;;;;;;;;;4861126;29;20547;-85
2023/04/19 06:06:24;;;;;;;11.43;10.13;;;;;;;;;;4836840;29;20069;-84
2023/04/19 06:08:52;;;;;;;12.73;9.93;;;;;;;;;;4833293;29;20133;-84
2023/04/19 06:11:22;;;;;;;12.18;9.50;;;;;;;;;;4837320;29;20042;-83
2023/04/19 06:14:01;;;;;;;13.48;10.07;;;;;;;;;;4835539;29;20058;-84
2023/04/19 06:16:29;;;;;;;12.38;10.65;;;;;;;;;;4837786;29;20065;-84
2023/04/19 06:18:56;;;;;;;13.30;9.95;;;;;;;;;;4833890;29;20120;-83
2023/04/19 06:21:24;;;;;;;12.25;10.05;;;;;;;;;;4835517;29;20081;-84
2023/04/19 06:23:57;;;;;;;13.18;10.68;;;;;;;;;;4835512;29;20060;-84
2023/04/19 06:26:25;;;;;;;13.40;10.35;;;;;;;;;;4836682;29;20050;-83
2023/04/19 06:28:53;;;;;;;16.65;10.55;;;;;;;;;;4833568;29;20561;-84
2023/04/19 06:31:22;;;;;;;23.63;20.27;;;;;;;;;;4832042;29;20118;-83
2023/04/19 06:33:49;;;;;;;20.70;10.93;;;;;;;;;;4839520;29;20099;-83
2023/04/19 06:36:17;;;;;;;17.83;9.82;;;;;;;;;;4830236;29;20054;-84
2023/04/19 06:38:45;;;;;;;13.52;10.70;;;;;;;;;;4834375;29;20133;-84
2023/04/19 06:41:14;;;;;;;17.40;11.02;;;;;;;;;;4843423;29;20085;-84
2023/04/19 06:43:43;;;;;;;16.13;9.80;;;;;;;;;;4835538;29;20057;-85
2023/04/19 06:46:12;;;;;;;16.42;10.68;;;;;;;;;;4845911;29;20046;-84
2023/04/19 06:48:40;;;;;;;16.00;10.40;;;;;;;;;;4852301;29;20070;-84
2023/04/19 06:51:08;;;;;;;12.05;9.95;;;;;;;;;;4845554;29;20069;-84
2023/04/19 06:53:35;;;;;;;12.65;10.30;;;;;;;;;;4845545;29;20053;-85
2023/04/19 06:56:04;;;;;;;14.23;11.20;;;;;;;;;;4859722;29;20026;-85
2023/04/19 06:58:34;;;;;;;17.42;10.50;;;;;;;;;;4851303;29;20046;-81
2023/04/19 07:01:05;;;;;;;14.52;10.93;;;;;;;;;;4858263;29;20040;-84
2023/04/19 07:03:33;;;;;;;38.67;22.35;;;;;;;;;;4840845;29;20070;-83
2023/04/19 07:06:01;;;;;;;19.85;10.73;;;;;;;;;;4838209;29;20062;-84
2023/04/19 07:08:28;;;;;;;16.77;11.50;;;;;;;;;;4840379;29;20520;-83
2023/04/19 07:11:15;;;;;;;14.07;10.18;;;;;;;;;;4837637;29;20343;-83
2023/04/19 07:13:43;;;;;;;17.13;10.77;;;;;;;;;;4838154;29;20480;-84
2023/04/19 07:16:12;;;;;;;13.38;11.48;;;;;;;;;;4839972;29;20056;-84
2023/04/19 07:18:39;;;;;;;12.02;9.50;;;;;;;;;;4840036;29;20080;-83
2023/04/19 07:21:06;;;;;;;11.32;10.07;;;;;;;;;;4830129;29;20060;-84
2023/04/19 07:23:34;;;;;;;17.25;10.25;;;;;;;;;;4838246;29;20516;-83
2023/04/19 07:26:04;;;;;;;15.77;10.25;;;;;;;;;;4833546;29;20135;-83
2023/04/19 07:28:31;;;;;;;13.45;10.60;;;;;;;;;;4839828;29;20046;-84
2023/04/19 07:30:59;;;;;;;17.83;11.55;;;;;;;;;;4831628;29;20061;-83
2023/04/19 07:33:31;;;;;;;12.35;10.48;;;;;;;;;;4833283;29;20038;-89
2023/04/19 07:36:01;;;;;;;10.68;9.57;;;;;;;;;;4833780;29;20073;-85
2023/04/19 07:38:29;;;;;;;15.60;10.77;;;;;;;;;;4837552;29;20243;-84
2023/04/19 07:40:58;;;;;;;20.20;14.57;;;;;;;;;;4838765;29;20049;-83
2023/04/19 07:43:25;;;;;;;13.90;10.57;;;;;;;;;;4840708;29;20080;-83
2023/04/19 07:45:53;;;;;;;12.88;9.88;;;;;;;;;;4839914;29;20503;-83
2023/04/19 07:48:21;;;;;;;15.63;10.35;;;;;;;;;;4838672;29;20398;-84
2023/04/19 07:50:48;;;;;;;12.32;10.27;;;;;;;;;;4839727;29;20045;-84
2023/04/19 07:53:17;;;;;;;11.57;10.00;;;;;;;;;;4838598;29;20054;-84
2023/04/19 07:55:44;;;;;;;13.88;10.63;;;;;;;;;;4830194;29;20050;-83
2023/04/19 07:58:11;;;;;;;15.18;9.95;;;;;;;;;;4838315;29;20068;-84
2023/04/19 08:00:42;;;;;;;20.98;15.95;;;;;;;;;;4834489;29;20173;-83
2023/04/19 08:03:09;;;;;;;40.30;19.55;;;;;;;;;;4840842;29;20065;-84
2023/04/19 08:05:37;;;;;;;14.32;11.10;;;;;;;;;;4839754;29;20145;-83
2023/04/19 08:08:07;;;;;;;13.45;11.63;;;;;;;;;;4841914;29;20114;-83
2023/04/19 08:10:36;;;;;;;12.57;11.00;;;;;;;;;;4857261;24;20057;-86
2023/04/19 08:13:07;;;;;;;12.77;11.40;;;;;;;;;;4858371;29;20419;-85
2023/04/19 08:15:41;;;;;;;15.70;11.55;;;;;;;;;;4856378;29;20049;-85
2023/04/19 08:18:30;;;;;;;12.95;11.48;;;;;;;;;;4854445;29;20057;-85
2023/04/19 08:21:01;;;;;;;13.10;11.65;;;;;;;;;;4822052;29;20137;-86
2023/04/19 08:23:28;;;;;;;14.30;11.73;;;;;;;;;;4821699;29;20066;-85
2023/04/19 08:26:11;;;;;;;14.52;11.95;;;;;;;;;;4823039;29;20103;-84
2023/04/19 08:28:38;;;;;;;18.85;13.02;;;;;;;;;;4820630;29;20122;-87
2023/04/19 08:31:06;;;;;;;15.80;13.50;;;;;;;;;;4821847;29;20153;-84
2023/04/19 08:33:34;;;;;;;16.08;13.60;;;;;;;;;;4822309;29;20106;-85
2023/04/19 08:36:01;;;;;;;17.08;13.57;;;;;;;;;;4820984;29;20050;-85
2023/04/19 08:38:29;;;;;;;25.13;14.75;;;;;;;;;;4820574;29;20521;-85
2023/04/19 08:40:56;;;;;;;19.33;15.10;;;;;;;;;;4820955;29;20665;-87
2023/04/19 08:43:27;;;;;;;16.17;11.90;;;;;;;;;;4821208;29;20054;-85
2023/04/19 08:45:55;;;;;;;19.23;13.30;;;;;;;;;;4821140;29;20050;-85
2023/04/19 08:48:23;;;;;;;20.38;15.50;;;;;;;;;;4820068;29;20081;-86
2023/04/19 08:50:51;;;;;;;21.10;14.38;;;;;;;;;;4839314;29;20580;-86
2023/04/19 08:53:32;;;;;;;21.38;14.80;;;;;;;;;;4839451;29;20075;-88
2023/04/19 08:56:00;;;;;;;19.52;14.65;;;;;;;;;;4832851;29;20050;-86
2023/04/19 08:58:44;;;;;;;22.50;15.10;;;;;;;;;;4832113;29;20061;-86
2023/04/19 09:01:32;;;;;;;22.77;15.45;;;;;;;;;;4835263;29;20045;-86
2023/04/19 09:04:04;;;;;;;21.88;15.95;;;;;;;;;;4844434;29;20054;-85
2023/04/19 09:06:52;;;;;;;23.30;16.52;;;;;;;;;;4846114;29;20424;-84
2023/04/19 09:09:21;;;;;;;21.27;16.67;;;;;;;;;;4845136;29;20046;-84
2023/04/19 09:11:51;;;;;;;17.02;13.95;;;;;;;;;;4821191;29;20374;-82
2023/04/19 09:14:19;;;;;;;26.15;17.60;;;;;;;;;;4820932;29;20079;-84
2023/04/19 09:16:47;;;;;;;24.70;18.55;;;;;;;;;;4820999;29;20541;-83
2023/04/19 09:19:15;;;;;;;23.77;16.75;;;;;;;;;;4822550;29;20053;-84
2023/04/19 09:21:52;;;;;;;26.08;16.35;;;;;;;;;;4824442;29;20050;-85
2023/04/19 09:24:38;;;;;;;23.55;16.15;;;;;;;;;;4824193;29;20057;-86
2023/04/19 09:27:26;;;;;;;24.35;16.67;;;;;;;;;;4823172;29;20054;-82
2023/04/19 09:29:55;;;;;;;18.77;14.85;;;;;;;;;;4824481;29;20061;-84
2023/04/19 09:32:22;;;;;;;27.92;19.58;;;;;;;;;;4825425;29;20528;-85
2023/04/19 09:34:51;;;;;;;24.83;18.33;;;;;;;;;;4824597;29;20525;-84
2023/04/19 09:37:18;;;;;;;21.40;15.43;;;;;;;;;;4823069;29;20062;-84
2023/04/19 09:40:21;;;;;;;23.38;16.65;;;;;;;;;;4824003;29;20158;-85
2023/04/19 09:42:49;;;;;;;23.48;17.45;;;;;;;;;;4824333;29;20061;-84
2023/04/19 09:45:22;;;;;;;24.02;17.45;;;;;;;;;;4824502;29;20054;-84
2023/04/19 09:48:02;;;;;;;29.23;18.67;;;;;;;;;;4823621;29;20063;-83
2023/04/19 09:50:30;;;;;;;26.23;16.90;;;;;;;;;;4824922;29;20057;-84
2023/04/19 09:53:00;;;;;;;22.70;16.55;;;;;;;;;;4823383;29;20050;-84
2023/04/19 09:55:27;;;;;;;21.55;16.27;;;;;;;;;;4823286;29;20111;-84
2023/04/19 09:57:59;;;;;;;22.88;16.92;;;;;;;;;;4830759;29;20057;-84
2023/04/19 10:00:26;;;;;;;23.40;16.63;;;;;;;;;;4826672;29;20061;-84
2023/04/19 10:03:03;;;;;;;20.85;14.25;;;;;;;;;;4824589;29;20626;-85
2023/04/19 10:05:31;;;;;;;21.77;15.70;;;;;;;;;;4823501;29;20058;-84
2023/04/19 10:08:01;;;;;;;24.48;16.63;;;;;;;;;;4820588;29;20057;-84
2023/04/19 10:10:29;;;;;;;20.63;16.13;;;;;;;;;;4844133;29;20458;-84
2023/04/19 10:13:01;;;;;;;23.08;16.50;;;;;;;;;;4848775;29;20096;-83
2023/04/19 10:15:32;;;;;;;19.33;14.40;;;;;;;;;;4856220;29;20082;-83
2023/04/19 10:18:19;;;;;;;20.52;13.80;;;;;;;;;;4859313;29;20053;-83
2023/04/19 10:20:54;;;;;;;21.63;15.35;;;;;;;;;;4853067;29;20115;-84
2023/04/19 10:23:24;;;;;;;15.40;10.77;;;;;;;;;;4843497;29;20410;-83
2023/04/19 10:25:56;;;;;;;11.15;9.90;;;;;;;;;;4834751;29;21568;-82
2023/04/19 10:28:24;;;;;;;12.68;8.75;;;;;;;;;;4836726;29;20303;-84
2023/04/19 10:31:01;;;;;;;10.90;8.55;;;;;;;;;;4837739;29;20058;-84
2023/04/19 10:33:36;;;;;;;10.43;6.40;;;;;;;;;;4836635;29;20236;-88
2023/04/19 10:36:04;;;;;;;10.63;6.55;;;;;;;;;;4839302;29;20050;-87
2023/04/19 10:38:47;;;;;;;7.80;7.00;;;;;;;;;;4837910;29;20068;-86
2023/04/19 10:41:16;;;;;;;8.45;6.60;;;;;;;;;;4832820;29;20587;-86
2023/04/19 10:43:46;;;;;;;6.53;5.82;;;;;;;;;;4837154;29;20069;-84
2023/04/19 10:46:35;;;;;;;7.70;6.63;;;;;;;;;;4836192;29;20058;-86
2023/04/19 10:49:04;;;;;;;5.00;4.55;;;;;;;;;;4834982;29;20098;-87
2023/04/19 10:51:38;;;;;;;5.78;5.18;;;;;;;;;;4839351;29;20053;-87
2023/04/19 10:54:06;;;;;;;9.20;6.70;;;;;;;;;;4838939;29;20053;-88
2023/04/19 10:56:36;;;;;;;7.22;5.43;;;;;;;;;;4838378;29;20400;-86
2023/04/19 10:59:10;;;;;;;5.50;5.00;;;;;;;;;;4835673;29;20477;-85
2023/04/19 11:01:42;;;;;;;5.28;4.78;;;;;;;;;;4834352;29;21215;-86
2023/04/19 11:04:35;;;;;;;9.30;8.55;;;;;;;;;;4832284;29;20070;-86
2023/04/19 11:07:04;;;;;;;6.78;5.35;;;;;;;;;;4804223;29;20047;-87
2023/04/19 11:09:38;;;;;;;5.07;4.57;;;;;;;;;;4810710;29;20046;-87
2023/04/19 11:12:12;;;;;;;4.90;4.47;;;;;;;;;;4813818;29;20300;-87
2023/04/19 11:14:41;;;;;;;5.90;4.50;;;;;;;;;;4800099;29;20070;-87
2023/04/19 11:17:16;;;;;;;4.25;3.95;;;;;;;;;;4798057;29;20058;-86
2023/04/19 11:19:55;;;;;;;4.43;4.03;;;;;;;;;;4793464;29;20062;-87
2023/04/19 11:22:26;;;;;;;3.95;3.65;;;;;;;;;;4814320;29;20084;-86
2023/04/19 11:25:09;;;;;;;5.20;3.80;;;;;;;;;;4822937;29;20057;-86
2023/04/19 11:27:36;;;;;;;4.28;3.85;;;;;;;;;;4802592;29;20055;-85
2023/04/19 11:30:04;;;;;;;5.40;4.30;;;;;;;;;;4815761;29;20068;-86
2023/04/19 11:32:32;;;;;;;4.03;3.63;;;;;;;;;;4813478;29;20042;-86
2023/04/19 11:35:07;;;;;;;4.65;4.25;;;;;;;;;;4806411;29;20050;-84
2023/04/19 11:37:37;;;;;;;;;;;;;;;;;;4817039;29;20047;-86
2023/04/19 11:40:05;;;;;;;4.78;3.90;;;;;;;;;;4808780;29;20020;-87
2023/04/19 11:42:33;;;;;;;6.28;4.53;;;;;;;;;;4810622;29;20071;-87
2023/04/19 11:45:00;;;;;;;7.18;4.53;;;;;;;;;;4829020;29;20054;-85
2023/04/19 11:47:28;;;;;;;5.95;4.57;;;;;;;;;;4817479;29;20122;-85
2023/04/19 11:49:56;;;;;;;4.72;4.32;;;;;;;;;;4815727;29;20051;-87
2023/04/19 11:52:24;;;;;;;5.15;4.72;;;;;;;;;;4819086;29;20047;-86
2023/04/19 11:54:52;;;;;;;5.18;4.60;;;;;;;;;;4820366;29;20030;-86
2023/04/19 11:57:29;;;;;;;4.93;4.53;;;;;;;;;;4818709;29;20102;-86
2023/04/19 12:00:10;;;;;;;14.60;13.07;;;;;;;;;;4803358;29;20050;-88
2023/04/19 12:02:43;;;;;;;30.10;15.43;;;;;;;;;;4797045;29;20258;-88
2023/04/19 12:05:13;;;;;;;;;;;;;;;;;;4811133;29;20061;-88
2023/04/19 12:08:00;;;;;;;5.13;4.63;;;;;;;;;;4794104;29;20354;-87
2023/04/19 12:10:27;;;;;;;5.63;4.28;;;;;;;;;;4795896;29;20849;-87
2023/04/19 12:12:55;;;;;;;5.18;4.60;;;;;;;;;;4793530;29;20088;-87
2023/04/19 12:15:22;;;;;;;8.98;4.40;;;;;;;;;;4809055;29;20459;-86
2023/04/19 12:18:00;;;;;;;5.25;4.75;;;;;;;;;;4799024;29;20055;-86
2023/04/19 12:20:31;;;;;;;7.03;5.18;;;;;;;;;;4798892;29;20071;-86
2023/04/19 12:22:59;;;;;;;6.75;5.70;;;;;;;;;;4793566;29;20051;-86
2023/04/19 12:25:29;;;;;;;7.60;5.65;;;;;;;;;;4796139;29;20058;-86
2023/04/19 12:27:57;;;;;;;5.50;4.97;;;;;;;;;;4795681;29;20134;-87
2023/04/19 12:30:28;;;;;;;7.70;6.47;;;;;;;;;;4794469;29;20055;-86
2023/04/19 12:32:55;;;;;;;6.78;5.90;;;;;;;;;;4811886;29;20046;-87
2023/04/19 12:35:27;;;;;;;8.82;5.78;;;;;;;;;;4797562;29;20486;-87
2023/04/19 12:37:57;;;;;;;7.00;6.22;;;;;;;;;;4793277;29;20098;-87
2023/04/19 12:40:24;;;;;;;7.05;6.35;;;;;;;;;;4794221;29;20058;-86
2023/04/19 12:42:52;;;;;;;7.40;6.28;;;;;;;;;;4798586;29;20752;-86
2023/04/19 12:45:24;;;;;;;7.60;6.07;;;;;;;;;;4790488;29;20053;-86
2023/04/19 12:48:00;;;;;;;6.05;5.47;;;;;;;;;;4792478;29;20066;-86
2023/04/19 12:50:28;;;;;;;22.73;20.67;;;;;;;;;;4796096;29;20047;-87
2023/04/19 12:52:55;;;;;;;7.50;6.75;;;;;;;;;;4795626;29;20050;-87
2023/04/19 12:55:23;;;;;;;7.10;6.40;;;;;;;;;;4801339;29;20055;-87
2023/04/19 12:57:54;;;;;;;6.75;6.03;;;;;;;;;;4799732;29;20128;-87
2023/04/19 13:00:21;;;;;;;9.57;7.68;;;;;;;;;;4802076;29;20039;-87
2023/04/19 13:02:49;;;;;;;13.55;7.47;;;;;;;;;;4794438;29;20053;-86
2023/04/19 13:05:16;;;;;;;8.35;7.05;;;;;;;;;;4798853;29;20059;-87
2023/04/19 13:07:45;;;;;;;10.65;7.18;;;;;;;;;;4799675;29;20096;-86
2023/04/19 13:10:13;;;;;;;11.02;7.85;;;;;;;;;;4811294;29;20646;-85
2023/04/19 13:12:40;;;;;;;9.38;7.18;;;;;;;;;;4796094;29;20047;-86
2023/04/19 13:15:08;;;;;;;6.85;6.25;;;;;;;;;;4811289;29;20506;-86
2023/04/19 13:17:36;;;;;;;6.00;5.50;;;;;;;;;;4797450;29;20054;-86
2023/04/19 13:20:08;;;;;;;7.95;4.88;;;;;;;;;;4793495;29;20050;-84
2023/04/19 13:22:35;;;;;;;104.03;93.03;;;;;;;;;;4797716;29;20070;-86
2023/04/19 13:25:03;;;;;;;4.82;3.10;;;;;;;;;;4798283;29;20118;-86
2023/04/19 13:27:50;;;;;;;4.55;2.72;;;;;;;;;;4794367;29;20057;-86
2023/04/19 13:30:18;;;;;;;2.15;1.95;;;;;;;;;;4794941;29;20109;-85
2023/04/19 13:32:45;;;;;;;25.73;19.45;;;;;;;;;;4798348;29;20077;-85
2023/04/19 13:35:13;;;;;;;2.63;2.40;;;;;;;;;;4790869;29;20062;-85
2023/04/19 13:37:43;;;;;;;3.45;2.80;;;;;;;;;;4792705;29;20050;-86
2023/04/19 13:40:10;;;;;;;2.70;2.33;;;;;;;;;;4792667;29;20145;-86
2023/04/19 13:42:45;;;;;;;2.72;2.47;;;;;;;;;;4795095;29;20137;-85
2023/04/19 13:45:13;;;;;;;2.53;2.33;;;;;;;;;;4796786;29;20236;-86
2023/04/19 13:47:40;;;;;;;290.65;262.30;;;;;;;;;;4791319;29;20157;-86
2023/04/19 13:50:07;;;;;;;54.67;50.65;;;;;;;;;;4783829;29;20043;-86
2023/04/19 13:52:35;;;;;;;13.02;11.68;;;;;;;;;;4791342;29;20085;-86
2023/04/19 13:55:03;;;;;;;333.45;290.42;;;;;;;;;;4793738;29;20055;-87
2023/04/19 13:57:30;;;;;;;2.40;2.28;;;;;;;;;;4790572;29;20055;-85
2023/04/19 14:00:07;;;;;;;12.77;11.63;;;;;;;;;;4793374;29;20402;-85
2023/04/19 14:02:45;;;;;;;3.08;2.63;;;;;;;;;;4794801;29;20142;-84
2023/04/19 14:05:12;;;;;;;7.20;4.15;;;;;;;;;;4815662;29;20049;-84
2023/04/19 14:07:40;;;;;;;3.28;2.50;;;;;;;;;;4823116;29;20112;-84
2023/04/19 14:10:10;;;;;;;2.83;2.55;;;;;;;;;;4823163;29;20035;-84
2023/04/19 14:12:37;;;;;;;3.53;3.22;;;;;;;;;;4819561;29;20034;-85
2023/04/19 14:15:16;;;;;;;2.70;2.50;;;;;;;;;;4806667;29;20051;-85
2023/04/19 14:17:51;;;;;;;2.75;2.55;;;;;;;;;;4795237;29;20051;-85
2023/04/19 14:20:19;;;;;;;2.85;2.65;;;;;;;;;;4811468;29;20061;-85
2023/04/19 14:22:48;;;;;;;3.17;2.88;;;;;;;;;;4796426;29;20062;-85
2023/04/19 14:25:17;;;;;;;4.25;2.55;;;;;;;;;;4802944;29;20112;-85
2023/04/19 14:27:44;;;;;;;4.90;3.08;;;;;;;;;;4798481;29;20075;-85
2023/04/19 14:30:12;;;;;;;3.78;3.35;;;;;;;;;;4799307;29;20094;-85
2023/04/19 14:32:40;;;;;;;3.78;3.42;;;;;;;;;;4801803;29;20096;-84
2023/04/19 14:35:14;;;;;;;6.82;4.55;;;;;;;;;;4803206;29;20043;-86
2023/04/19 14:37:42;;;;;;;4.53;3.80;;;;;;;;;;4802538;29;20047;-85
2023/04/19 14:40:10;;;;;;;3.50;3.20;;;;;;;;;;4803724;29;20084;-85
2023/04/19 14:42:39;;;;;;;3.75;3.45;;;;;;;;;;4801503;29;20058;-86
2023/04/19 14:45:07;;;;;;;7.38;4.15;;;;;;;;;;4802858;29;20054;-85
2023/04/19 14:47:34;;;;;;;5.70;3.80;;;;;;;;;;4811266;29;20046;-84